Terminal Aerodrome Forecast
Issued by NWS

Home | Current Version | Previous Version | Text Only | Print | Product List | Glossary On
Versions: 1 2 3 4 5 6 7 8 9 10 11 12 13 14 15 16 17 18 19
354
FTUS41 KPBZ 070529
TAFLBE
TAF
KLBE 070529Z 0706/0806 VRB03KT P6SM SKC
     FM071800 19007G15KT P6SM BKN250
     FM080300 VRB04KT P6SM BKN100=

USA.gov is the U.S. government's official web portal to all federal, state and local government web resources and services.